sensor_id;sensor_type;location;lat;lon;timestamp;pressure;altitude;pressure_sealevel;temperature;humidity
18678;BME280;9469;51.114;13.914;2023-03-15T00:04:38;98049.34;;;2.43;100.00
18678;BME280;9469;51.114;13.914;2023-03-15T00:09:47;98048.53;;;2.62;99.86
18678;BME280;9469;51.114;13.914;2023-03-15T00:14:54;98053.03;;;2.42;99.87
18678;BME280;9469;51.114;13.914;2023-03-15T00:19:59;98064.03;;;2.59;99.04
18678;BME280;9469;51.114;13.914;2023-03-15T00:25:08;98081.63;;;2.63;97.79
18678;BME280;9469;51.114;13.914;2023-03-15T00:30:14;98085.81;;;2.54;96.41
18678;BME280;9469;51.114;13.914;2023-03-15T00:35:21;98085.28;;;2.77;95.92
18678;BME280;9469;51.114;13.914;2023-03-15T00:40:31;98098.41;;;2.98;94.12
18678;BME280;9469;51.114;13.914;2023-03-15T00:45:37;98102.38;;;2.75;95.42
18678;BME280;9469;51.114;13.914;2023-03-15T00:50:42;98110.47;;;3.09;94.80
18678;BME280;9469;51.114;13.914;2023-03-15T00:55:52;98108.66;;;2.84;95.86
18678;BME280;9469;51.114;13.914;2023-03-15T01:00:57;98105.53;;;2.62;95.81
18678;BME280;9469;51.114;13.914;2023-03-15T01:06:08;98123.38;;;2.70;96.42
18678;BME280;9469;51.114;13.914;2023-03-15T01:11:19;98123.63;;;2.78;96.23
18678;BME280;9469;51.114;13.914;2023-03-15T01:16:26;98120.69;;;3.15;94.18
18678;BME280;9469;51.114;13.914;2023-03-15T01:21:31;98129.66;;;3.04;94.29
18678;BME280;9469;51.114;13.914;2023-03-15T01:26:43;98144.63;;;2.83;96.92
18678;BME280;9469;51.114;13.914;2023-03-15T01:31:49;98149.09;;;2.53;97.33
18678;BME280;9469;51.114;13.914;2023-03-15T01:36:54;98150.44;;;2.55;97.20
18678;BME280;9469;51.114;13.914;2023-03-15T01:42:09;98153.31;;;2.69;98.04
18678;BME280;9469;51.114;13.914;2023-03-15T01:47:14;98160.63;;;2.37;98.73
18678;BME280;9469;51.114;13.914;2023-03-15T01:52:21;98149.06;;;2.38;99.26
18678;BME280;9469;51.114;13.914;2023-03-15T01:57:40;98151.22;;;2.71;99.09
18678;BME280;9469;51.114;13.914;2023-03-15T02:02:51;98150.16;;;2.42;99.61
18678;BME280;9469;51.114;13.914;2023-03-15T02:08:02;98144.09;;;2.26;100.00
18678;BME280;9469;51.114;13.914;2023-03-15T02:13:15;98157.22;;;2.36;99.97
18678;BME280;9469;51.114;13.914;2023-03-15T02:18:23;98152.22;;;2.35;99.49
18678;BME280;9469;51.114;13.914;2023-03-15T02:23:32;98149.59;;;2.30;99.20
18678;BME280;9469;51.114;13.914;2023-03-15T02:28:42;98156.47;;;2.51;98.86
18678;BME280;9469;51.114;13.914;2023-03-15T02:33:49;98166.91;;;2.36;98.51
18678;BME280;9469;51.114;13.914;2023-03-15T02:38:56;98172.19;;;2.41;98.54
18678;BME280;9469;51.114;13.914;2023-03-15T02:44:10;98173.72;;;2.32;99.18
18678;BME280;9469;51.114;13.914;2023-03-15T02:49:20;98182.09;;;2.13;99.42
18678;BME280;9469;51.114;13.914;2023-03-15T02:54:27;98197.88;;;2.29;99.69
18678;BME280;9469;51.114;13.914;2023-03-15T02:59:37;98195.28;;;2.39;99.07
18678;BME280;9469;51.114;13.914;2023-03-15T03:04:43;98197.91;;;2.54;97.77
18678;BME280;9469;51.114;13.914;2023-03-15T03:09:57;98210.53;;;2.42;97.82
18678;BME280;9469;51.114;13.914;2023-03-15T03:15:12;98215.28;;;2.60;97.15
18678;BME280;9469;51.114;13.914;2023-03-15T03:20:17;98222.09;;;2.66;97.16
18678;BME280;9469;51.114;13.914;2023-03-15T03:25:23;98228.34;;;2.35;97.90
18678;BME280;9469;51.114;13.914;2023-03-15T03:30:34;98233.66;;;2.60;96.95
18678;BME280;9469;51.114;13.914;2023-03-15T03:35:39;98249.88;;;2.47;97.88
18678;BME280;9469;51.114;13.914;2023-03-15T03:40:45;98245.75;;;2.71;96.99
18678;BME280;9469;51.114;13.914;2023-03-15T03:45:53;98259.97;;;2.80;96.62
18678;BME280;9469;51.114;13.914;2023-03-15T03:51:00;98265.66;;;2.57;97.97
18678;BME280;9469;51.114;13.914;2023-03-15T03:56:06;98267.72;;;2.45;98.94
18678;BME280;9469;51.114;13.914;2023-03-15T04:01:14;98279.56;;;2.47;98.41
18678;BME280;9469;51.114;13.914;2023-03-15T04:06:24;98278.38;;;2.08;100.00
18678;BME280;9469;51.114;13.914;2023-03-15T04:11:29;98282.81;;;2.07;100.00
18678;BME280;9469;51.114;13.914;2023-03-15T04:16:43;98281.16;;;1.91;100.00
18678;BME280;9469;51.114;13.914;2023-03-15T04:21:50;98295.75;;;2.29;100.00
18678;BME280;9469;51.114;13.914;2023-03-15T04:27:10;98304.75;;;1.91;100.00
18678;BME280;9469;51.114;13.914;2023-03-15T04:32:37;98311.25;;;2.26;100.00
18678;BME280;9469;51.114;13.914;2023-03-15T04:38:01;98323.72;;;2.03;100.00
18678;BME280;9469;51.114;13.914;2023-03-15T04:43:34;98328.78;;;2.20;100.00
18678;BME280;9469;51.114;13.914;2023-03-15T04:48:59;98336.41;;;2.22;100.00
18678;BME280;9469;51.114;13.914;2023-03-15T04:54:42;98343.56;;;1.89;100.00
18678;BME280;9469;51.114;13.914;2023-03-15T05:00:21;98348.72;;;1.79;100.00
18678;BME280;9469;51.114;13.914;2023-03-15T05:05:46;98360.47;;;2.08;100.00
18678;BME280;9469;51.114;13.914;2023-03-15T05:11:26;98364.03;;;1.92;100.00
18678;BME280;9469;51.114;13.914;2023-03-15T05:16:55;98369.22;;;1.82;100.00
18678;BME280;9469;51.114;13.914;2023-03-15T05:22:17;98378.16;;;1.86;100.00
18678;BME280;9469;51.114;13.914;2023-03-15T05:27:44;98395.97;;;1.84;100.00
18678;BME280;9469;51.114;13.914;2023-03-15T05:33:01;98399.75;;;1.98;100.00
18678;BME280;9469;51.114;13.914;2023-03-15T05:38:25;98409.19;;;1.99;99.84
18678;BME280;9469;51.114;13.914;2023-03-15T05:44:01;98423.47;;;2.13;99.35
18678;BME280;9469;51.114;13.914;2023-03-15T05:49:25;98441.47;;;2.37;98.54
18678;BME280;9469;51.114;13.914;2023-03-15T05:54:46;98435.97;;;2.38;97.58
18678;BME280;9469;51.114;13.914;2023-03-15T06:00:21;98448.00;;;2.81;96.50
18678;BME280;9469;51.114;13.914;2023-03-15T06:05:34;98451.09;;;2.68;95.65
18678;BME280;9469;51.114;13.914;2023-03-15T06:10:49;98465.41;;;2.87;95.81
18678;BME280;9469;51.114;13.914;2023-03-15T06:15:54;98473.50;;;3.57;93.62
18678;BME280;9469;51.114;13.914;2023-03-15T06:21:00;98468.75;;;8.93;69.38
18678;BME280;9469;51.114;13.914;2023-03-15T06:26:08;98465.50;;;11.00;62.39
18678;BME280;9469;51.114;13.914;2023-03-15T06:31:15;98464.88;;;12.11;57.75
18678;BME280;9469;51.114;13.914;2023-03-15T06:36:27;98466.00;;;13.20;56.18
18678;BME280;9469;51.114;13.914;2023-03-15T06:41:35;98482.19;;;12.68;56.46
18678;BME280;9469;51.114;13.914;2023-03-15T06:46:45;98484.31;;;13.80;54.15
18678;BME280;9469;51.114;13.914;2023-03-15T06:51:52;98506.13;;;10.83;58.00
18678;BME280;9469;51.114;13.914;2023-03-15T06:56:59;98491.59;;;13.71;54.95
18678;BME280;9469;51.114;13.914;2023-03-15T07:02:05;98483.47;;;16.10;49.58
18678;BME280;9469;51.114;13.914;2023-03-15T07:07:10;98505.47;;;13.06;53.71
18678;BME280;9469;51.114;13.914;2023-03-15T07:12:18;98503.13;;;16.54;48.66
18678;BME280;9469;51.114;13.914;2023-03-15T07:17:26;98508.09;;;14.14;51.92
18678;BME280;9469;51.114;13.914;2023-03-15T07:22:33;98497.47;;;15.03;50.65
18678;BME280;9469;51.114;13.914;2023-03-15T07:27:44;98493.56;;;16.01;49.63
18678;BME280;9469;51.114;13.914;2023-03-15T07:32:51;98486.75;;;15.03;50.56
18678;BME280;9469;51.114;13.914;2023-03-15T07:37:58;98500.78;;;13.40;53.17
18678;BME280;9469;51.114;13.914;2023-03-15T07:43:08;98506.41;;;13.01;54.95
18678;BME280;9469;51.114;13.914;2023-03-15T07:48:14;98515.19;;;12.64;53.54
18678;BME280;9469;51.114;13.914;2023-03-15T07:53:26;98516.94;;;12.17;54.30
18678;BME280;9469;51.114;13.914;2023-03-15T07:58:37;98517.69;;;12.60;53.90
18678;BME280;9469;51.114;13.914;2023-03-15T08:03:44;98515.63;;;13.79;52.14
18678;BME280;9469;51.114;13.914;2023-03-15T08:08:52;98516.53;;;12.78;53.22
18678;BME280;9469;51.114;13.914;2023-03-15T08:14:00;98528.84;;;12.28;56.57
18678;BME280;9469;51.114;13.914;2023-03-15T08:19:04;98536.81;;;11.68;54.64
18678;BME280;9469;51.114;13.914;2023-03-15T08:24:10;98538.59;;;12.50;53.20
18678;BME280;9469;51.114;13.914;2023-03-15T08:29:20;98547.84;;;10.74;57.79
18678;BME280;9469;51.114;13.914;2023-03-15T08:34:25;98556.41;;;9.15;61.94
18678;BME280;9469;51.114;13.914;2023-03-15T08:39:32;98558.25;;;7.99;64.57
18678;BME280;9469;51.114;13.914;2023-03-15T08:44:41;98562.53;;;8.51;64.46
18678;BME280;9469;51.114;13.914;2023-03-15T08:49:46;98592.66;;;7.14;71.39
18678;BME280;9469;51.114;13.914;2023-03-15T08:54:52;98600.84;;;7.13;76.45
18678;BME280;9469;51.114;13.914;2023-03-15T09:00:00;98617.69;;;5.67;82.12
18678;BME280;9469;51.114;13.914;2023-03-15T09:05:08;98627.78;;;5.45;83.67
18678;BME280;9469;51.114;13.914;2023-03-15T09:10:15;98641.56;;;4.86;94.73
18678;BME280;9469;51.114;13.914;2023-03-15T09:15:24;98653.72;;;4.72;99.75
18678;BME280;9469;51.114;13.914;2023-03-15T09:20:34;98645.75;;;5.23;100.00
18678;BME280;9469;51.114;13.914;2023-03-15T09:25:44;98653.19;;;4.60;100.00
18678;BME280;9469;51.114;13.914;2023-03-15T09:31:13;98651.06;;;4.67;100.00
18678;BME280;9469;51.114;13.914;2023-03-15T09:36:23;98657.16;;;4.93;100.00
18678;BME280;9469;51.114;13.914;2023-03-15T09:41:39;98655.56;;;4.97;100.00
18678;BME280;9469;51.114;13.914;2023-03-15T09:46:56;98661.63;;;5.18;100.00
18678;BME280;9469;51.114;13.914;2023-03-15T09:52:11;98665.66;;;5.89;99.35
18678;BME280;9469;51.114;13.914;2023-03-15T09:57:23;98668.19;;;5.00;100.00
18678;BME280;9469;51.114;13.914;2023-03-15T10:02:36;98666.50;;;5.64;100.00
18678;BME280;9469;51.114;13.914;2023-03-15T10:07:45;98667.31;;;5.65;98.78
18678;BME280;9469;51.114;13.914;2023-03-15T10:12:57;98674.13;;;5.86;100.00
18678;BME280;9469;51.114;13.914;2023-03-15T10:18:19;98677.31;;;5.73;99.07
18678;BME280;9469;51.114;13.914;2023-03-15T10:23:38;98678.41;;;5.52;98.90
18678;BME280;9469;51.114;13.914;2023-03-15T10:28:47;98676.25;;;5.84;98.31
18678;BME280;9469;51.114;13.914;2023-03-15T10:33:56;98674.22;;;5.41;96.94
18678;BME280;9469;51.114;13.914;2023-03-15T10:39:05;98675.91;;;6.01;95.42
18678;BME280;9469;51.114;13.914;2023-03-15T10:44:12;98683.78;;;5.06;99.25
18678;BME280;9469;51.114;13.914;2023-03-15T10:49:21;98687.44;;;4.95;98.51
18678;BME280;9469;51.114;13.914;2023-03-15T10:54:26;98693.75;;;4.69;99.18
18678;BME280;9469;51.114;13.914;2023-03-15T10:59:33;98697.97;;;4.65;99.72
18678;BME280;9469;51.114;13.914;2023-03-15T11:04:47;98700.00;;;4.28;100.00
18678;BME280;9469;51.114;13.914;2023-03-15T11:09:59;98698.78;;;4.76;100.00
18678;BME280;9469;51.114;13.914;2023-03-15T11:15:11;98704.03;;;5.21;97.24
18678;BME280;9469;51.114;13.914;2023-03-15T11:20:28;98689.75;;;5.52;95.11
18678;BME280;9469;51.114;13.914;2023-03-15T11:25:36;98697.34;;;5.84;92.36
18678;BME280;9469;51.114;13.914;2023-03-15T11:30:42;98695.44;;;6.05;92.28
18678;BME280;9469;51.114;13.914;2023-03-15T11:35:52;98688.75;;;5.33;91.62
18678;BME280;9469;51.114;13.914;2023-03-15T11:41:01;98690.88;;;5.26;92.39
18678;BME280;9469;51.114;13.914;2023-03-15T11:46:15;98694.81;;;5.19;92.18
18678;BME280;9469;51.114;13.914;2023-03-15T11:51:28;98691.94;;;5.10;91.41
18678;BME280;9469;51.114;13.914;2023-03-15T11:56:48;98699.84;;;5.10;89.26
18678;BME280;9469;51.114;13.914;2023-03-15T12:01:56;98681.59;;;5.49;88.37
18678;BME280;9469;51.114;13.914;2023-03-15T12:07:09;98684.94;;;5.79;83.48
18678;BME280;9469;51.114;13.914;2023-03-15T12:12:35;98678.78;;;6.09;83.42
18678;BME280;9469;51.114;13.914;2023-03-15T12:17:43;98679.00;;;6.18;82.81
18678;BME280;9469;51.114;13.914;2023-03-15T12:23:06;98678.28;;;5.97;82.82
18678;BME280;9469;51.114;13.914;2023-03-15T12:28:21;98683.03;;;6.00;82.72
18678;BME280;9469;51.114;13.914;2023-03-15T12:33:29;98680.47;;;5.75;81.41
18678;BME280;9469;51.114;13.914;2023-03-15T12:38:39;98676.78;;;5.76;81.43
18678;BME280;9469;51.114;13.914;2023-03-15T12:43:44;98672.25;;;6.40;80.45
18678;BME280;9469;51.114;13.914;2023-03-15T12:49:05;98673.69;;;7.81;77.73
18678;BME280;9469;51.114;13.914;2023-03-15T12:54:14;98676.59;;;8.04;80.27
18678;BME280;9469;51.114;13.914;2023-03-15T12:59:28;98686.56;;;7.41;78.35
18678;BME280;9469;51.114;13.914;2023-03-15T13:04:34;98686.78;;;6.87;78.39
18678;BME280;9469;51.114;13.914;2023-03-15T13:10:07;98682.84;;;7.13;81.33
18678;BME280;9469;51.114;13.914;2023-03-15T13:15:26;98691.03;;;6.39;82.36
18678;BME280;9469;51.114;13.914;2023-03-15T13:20:41;98690.56;;;7.38;82.21
18678;BME280;9469;51.114;13.914;2023-03-15T13:26:02;98691.91;;;7.07;83.28
18678;BME280;9469;51.114;13.914;2023-03-15T13:31:19;98695.91;;;6.66;84.75
18678;BME280;9469;51.114;13.914;2023-03-15T13:36:28;98700.06;;;6.72;83.75
18678;BME280;9469;51.114;13.914;2023-03-15T13:41:45;98695.25;;;7.46;80.32
18678;BME280;9469;51.114;13.914;2023-03-15T13:46:55;98701.38;;;7.13;80.70
18678;BME280;9469;51.114;13.914;2023-03-15T13:52:03;98703.03;;;7.04;79.30
18678;BME280;9469;51.114;13.914;2023-03-15T13:57:18;98706.59;;;6.89;80.61
18678;BME280;9469;51.114;13.914;2023-03-15T14:02:30;98711.41;;;7.45;75.26
18678;BME280;9469;51.114;13.914;2023-03-15T14:07:40;98714.81;;;7.50;75.86
18678;BME280;9469;51.114;13.914;2023-03-15T14:12:50;98730.59;;;6.54;78.13
18678;BME280;9469;51.114;13.914;2023-03-15T14:18:01;98725.34;;;7.21;78.01
18678;BME280;9469;51.114;13.914;2023-03-15T14:23:10;98732.94;;;6.61;78.38
18678;BME280;9469;51.114;13.914;2023-03-15T14:28:25;98731.59;;;7.02;75.42
18678;BME280;9469;51.114;13.914;2023-03-15T14:33:38;98721.38;;;7.24;74.53
18678;BME280;9469;51.114;13.914;2023-03-15T14:38:50;98716.50;;;6.69;73.05
18678;BME280;9469;51.114;13.914;2023-03-15T14:43:58;98729.94;;;7.11;71.49
18678;BME280;9469;51.114;13.914;2023-03-15T14:49:04;98726.25;;;7.12;69.82
18678;BME280;9469;51.114;13.914;2023-03-15T14:54:10;98735.28;;;7.06;70.95
18678;BME280;9469;51.114;13.914;2023-03-15T14:59:21;98717.91;;;7.57;70.71
18678;BME280;9469;51.114;13.914;2023-03-15T15:04:31;98724.41;;;7.93;69.16
18678;BME280;9469;51.114;13.914;2023-03-15T15:09:43;98736.44;;;7.57;69.25
18678;BME280;9469;51.114;13.914;2023-03-15T15:14:55;98730.56;;;7.32;68.86
18678;BME280;9469;51.114;13.914;2023-03-15T15:19:59;98746.56;;;6.83;70.76
18678;BME280;9469;51.114;13.914;2023-03-15T15:25:13;98741.66;;;6.61;68.02
18678;BME280;9469;51.114;13.914;2023-03-15T15:30:23;98758.00;;;7.12;68.82
18678;BME280;9469;51.114;13.914;2023-03-15T15:35:30;98761.19;;;6.65;71.65
18678;BME280;9469;51.114;13.914;2023-03-15T15:40:47;98770.06;;;7.23;71.59
18678;BME280;9469;51.114;13.914;2023-03-15T15:45:55;98770.41;;;6.73;71.80
18678;BME280;9469;51.114;13.914;2023-03-15T15:51:18;98777.34;;;6.53;71.92
18678;BME280;9469;51.114;13.914;2023-03-15T15:56:29;98782.66;;;6.53;72.08
18678;BME280;9469;51.114;13.914;2023-03-15T16:01:40;98788.88;;;6.78;73.56
18678;BME280;9469;51.114;13.914;2023-03-15T16:07:04;98787.69;;;6.55;71.96
18678;BME280;9469;51.114;13.914;2023-03-15T16:12:11;98799.44;;;6.19;75.58
18678;BME280;9469;51.114;13.914;2023-03-15T16:17:23;98814.94;;;6.40;73.95
18678;BME280;9469;51.114;13.914;2023-03-15T16:22:30;98807.88;;;6.31;74.10
18678;BME280;9469;51.114;13.914;2023-03-15T16:27:37;98830.88;;;6.15;74.71
18678;BME280;9469;51.114;13.914;2023-03-15T16:32:47;98836.47;;;5.94;75.90
18678;BME280;9469;51.114;13.914;2023-03-15T16:37:56;98836.19;;;5.70;76.96
18678;BME280;9469;51.114;13.914;2023-03-15T16:43:02;98849.94;;;5.72;78.55
18678;BME280;9469;51.114;13.914;2023-03-15T16:48:12;98856.25;;;5.61;79.37
18678;BME280;9469;51.114;13.914;2023-03-15T16:53:21;98874.72;;;5.51;79.64
18678;BME280;9469;51.114;13.914;2023-03-15T16:58:28;98871.28;;;5.65;78.15
18678;BME280;9469;51.114;13.914;2023-03-15T17:03:38;98887.06;;;5.15;79.33
18678;BME280;9469;51.114;13.914;2023-03-15T17:08:45;98897.06;;;5.13;79.15
18678;BME280;9469;51.114;13.914;2023-03-15T17:13:51;98893.03;;;4.85;80.75
18678;BME280;9469;51.114;13.914;2023-03-15T17:18:59;98908.13;;;5.05;78.91
18678;BME280;9469;51.114;13.914;2023-03-15T17:24:10;98909.34;;;4.82;78.82
18678;BME280;9469;51.114;13.914;2023-03-15T17:29:20;98919.06;;;4.72;79.14
18678;BME280;9469;51.114;13.914;2023-03-15T17:34:33;98923.75;;;4.65;78.28
18678;BME280;9469;51.114;13.914;2023-03-15T17:39:43;98931.72;;;4.75;78.50
18678;BME280;9469;51.114;13.914;2023-03-15T17:44:49;98940.50;;;4.90;78.38
18678;BME280;9469;51.114;13.914;2023-03-15T17:50:00;98950.13;;;5.27;77.66
18678;BME280;9469;51.114;13.914;2023-03-15T17:55:15;98969.94;;;4.77;79.05
18678;BME280;9469;51.114;13.914;2023-03-15T18:00:22;98966.06;;;4.43;80.84
18678;BME280;9469;51.114;13.914;2023-03-15T18:05:33;98974.69;;;4.33;82.02
18678;BME280;9469;51.114;13.914;2023-03-15T18:10:40;98988.56;;;3.92;83.58
18678;BME280;9469;51.114;13.914;2023-03-15T18:15:47;98995.63;;;3.87;85.46
18678;BME280;9469;51.114;13.914;2023-03-15T18:20:56;98995.81;;;4.12;83.90
18678;BME280;9469;51.114;13.914;2023-03-15T18:26:04;99001.91;;;4.49;82.98
18678;BME280;9469;51.114;13.914;2023-03-15T18:31:13;98993.34;;;4.69;83.17
18678;BME280;9469;51.114;13.914;2023-03-15T18:36:25;99012.97;;;4.14;83.59
18678;BME280;9469;51.114;13.914;2023-03-15T18:41:33;99011.63;;;4.12;85.83
18678;BME280;9469;51.114;13.914;2023-03-15T18:46:39;99019.13;;;4.25;85.68
18678;BME280;9469;51.114;13.914;2023-03-15T18:51:52;99034.34;;;4.18;87.14
18678;BME280;9469;51.114;13.914;2023-03-15T18:57:00;99021.94;;;4.18;88.15
18678;BME280;9469;51.114;13.914;2023-03-15T19:02:08;99033.53;;;4.17;88.68
18678;BME280;9469;51.114;13.914;2023-03-15T19:07:16;99036.88;;;4.08;88.31
18678;BME280;9469;51.114;13.914;2023-03-15T19:12:29;99050.78;;;4.03;89.18
18678;BME280;9469;51.114;13.914;2023-03-15T19:17:39;99051.25;;;3.74;92.62
18678;BME280;9469;51.114;13.914;2023-03-15T19:22:48;99053.44;;;3.33;95.15
18678;BME280;9469;51.114;13.914;2023-03-15T19:27:55;99059.00;;;3.37;95.17
18678;BME280;9469;51.114;13.914;2023-03-15T19:33:03;99064.66;;;3.07;97.00
18678;BME280;9469;51.114;13.914;2023-03-15T19:38:12;99071.16;;;3.21;97.84
18678;BME280;9469;51.114;13.914;2023-03-15T19:43:21;99078.16;;;3.32;94.91
18678;BME280;9469;51.114;13.914;2023-03-15T19:48:27;99071.06;;;3.54;93.69
18678;BME280;9469;51.114;13.914;2023-03-15T19:53:35;99088.34;;;2.74;97.07
18678;BME280;9469;51.114;13.914;2023-03-15T19:58:41;99095.28;;;2.63;99.36
18678;BME280;9469;51.114;13.914;2023-03-15T20:03:47;99105.00;;;2.96;98.46
18678;BME280;9469;51.114;13.914;2023-03-15T20:08:55;99113.81;;;3.07;96.11
18678;BME280;9469;51.114;13.914;2023-03-15T20:14:03;99102.81;;;3.10;96.10
18678;BME280;9469;51.114;13.914;2023-03-15T20:19:10;99108.03;;;3.26;95.36
18678;BME280;9469;51.114;13.914;2023-03-15T20:24:18;99116.84;;;2.82;95.92
18678;BME280;9469;51.114;13.914;2023-03-15T20:29:23;99122.66;;;2.67;97.69
18678;BME280;9469;51.114;13.914;2023-03-15T20:34:30;99131.09;;;2.69;97.42
18678;BME280;9469;51.114;13.914;2023-03-15T20:39:50;99133.19;;;2.84;96.62
18678;BME280;9469;51.114;13.914;2023-03-15T20:44:58;99153.84;;;2.47;98.68
18678;BME280;9469;51.114;13.914;2023-03-15T20:50:10;99159.53;;;2.28;100.00
18678;BME280;9469;51.114;13.914;2023-03-15T20:55:21;99155.16;;;2.78;99.09
18678;BME280;9469;51.114;13.914;2023-03-15T21:00:27;99169.13;;;2.67;97.87
18678;BME280;9469;51.114;13.914;2023-03-15T21:05:33;99180.91;;;2.48;99.40
18678;BME280;9469;51.114;13.914;2023-03-15T21:10:42;99184.28;;;2.76;98.84
18678;BME280;9469;51.114;13.914;2023-03-15T21:15:50;99185.53;;;2.74;98.98
18678;BME280;9469;51.114;13.914;2023-03-15T21:20:59;99188.63;;;2.54;100.00
18678;BME280;9469;51.114;13.914;2023-03-15T21:26:08;99196.38;;;2.94;97.39
18678;BME280;9469;51.114;13.914;2023-03-15T21:31:21;99195.28;;;2.90;96.39
18678;BME280;9469;51.114;13.914;2023-03-15T21:36:27;99205.13;;;2.83;97.19
18678;BME280;9469;51.114;13.914;2023-03-15T21:41:38;99205.09;;;2.50;100.00
18678;BME280;9469;51.114;13.914;2023-03-15T21:46:44;99216.91;;;2.64;98.67
18678;BME280;9469;51.114;13.914;2023-03-15T21:51:49;99210.88;;;2.80;97.24
18678;BME280;9469;51.114;13.914;2023-03-15T21:56:57;99216.19;;;2.85;96.83
18678;BME280;9469;51.114;13.914;2023-03-15T22:02:02;99216.34;;;2.78;96.64
18678;BME280;9469;51.114;13.914;2023-03-15T22:07:09;99215.69;;;2.55;96.99
18678;BME280;9469;51.114;13.914;2023-03-15T22:12:17;99213.06;;;2.55;97.54
18678;BME280;9469;51.114;13.914;2023-03-15T22:17:22;99219.09;;;2.27;99.32
18678;BME280;9469;51.114;13.914;2023-03-15T22:22:30;99218.47;;;2.08;100.00
18678;BME280;9469;51.114;13.914;2023-03-15T22:27:38;99227.56;;;1.78;100.00
18678;BME280;9469;51.114;13.914;2023-03-15T22:32:43;99231.31;;;1.93;100.00
18678;BME280;9469;51.114;13.914;2023-03-15T22:37:51;99235.94;;;2.14;100.00
18678;BME280;9469;51.114;13.914;2023-03-15T22:43:01;99234.63;;;2.29;100.00
18678;BME280;9469;51.114;13.914;2023-03-15T22:48:06;99242.19;;;1.62;100.00
18678;BME280;9469;51.114;13.914;2023-03-15T22:53:11;99240.00;;;1.36;100.00
18678;BME280;9469;51.114;13.914;2023-03-15T22:58:19;99242.97;;;1.28;100.00
18678;BME280;9469;51.114;13.914;2023-03-15T23:03:26;99248.91;;;1.35;100.00
18678;BME280;9469;51.114;13.914;2023-03-15T23:08:32;99245.03;;;1.49;100.00
18678;BME280;9469;51.114;13.914;2023-03-15T23:13:41;99268.16;;;1.52;100.00
18678;BME280;9469;51.114;13.914;2023-03-15T23:18:49;99253.22;;;1.41;100.00
18678;BME280;9469;51.114;13.914;2023-03-15T23:23:57;99267.34;;;1.17;100.00
18678;BME280;9469;51.114;13.914;2023-03-15T23:29:05;99275.66;;;1.25;100.00
18678;BME280;9469;51.114;13.914;2023-03-15T23:34:11;99272.31;;;1.07;100.00
18678;BME280;9469;51.114;13.914;2023-03-15T23:39:17;99268.19;;;0.88;100.00
18678;BME280;9469;51.114;13.914;2023-03-15T23:44:28;99270.75;;;1.06;100.00
18678;BME280;9469;51.114;13.914;2023-03-15T23:49:34;99279.28;;;0.71;100.00
18678;BME280;9469;51.114;13.914;2023-03-15T23:54:41;99280.81;;;0.79;100.00
18678;BME280;9469;51.114;13.914;2023-03-15T23:59:49;99291.72;;;0.76;100.00
